createdAt,value
2019-05-30T00:00:25.399Z,84.10
2019-05-30T00:02:27.656Z,85.12
2019-05-30T00:04:29.984Z,85.38
2019-05-30T00:06:32.310Z,85.63
2019-05-30T00:08:34.536Z,85.67
2019-05-30T00:10:36.673Z,85.82
2019-05-30T00:12:38.778Z,86.74
2019-05-30T00:14:41.996Z,87.16
2019-05-30T00:16:44.214Z,86.85
2019-05-30T00:18:46.396Z,86.90
2019-05-30T00:20:48.564Z,87.60
2019-05-30T00:22:50.658Z,87.30
2019-05-30T00:24:52.918Z,87.39
2019-05-30T00:26:56.205Z,87.37
2019-05-30T00:28:58.365Z,87.97
2019-05-30T00:31:00.831Z,88.18
2019-05-30T00:33:03.547Z,88.57
2019-05-30T00:35:07.235Z,88.55
2019-05-30T00:37:09.810Z,88.78
2019-05-30T00:39:11.917Z,88.47
2019-05-30T00:41:14.060Z,88.60
2019-05-30T00:43:16.101Z,88.86
2019-05-30T00:45:21.269Z,88.86
2019-05-30T00:47:22.795Z,89.06
2019-05-30T00:49:25.038Z,88.88
2019-05-30T00:51:26.779Z,89.43
2019-05-30T00:53:29.070Z,89.65
2019-05-30T00:55:31.203Z,89.64
2019-05-30T00:57:33.205Z,89.56
2019-05-30T00:59:36.474Z,89.87
2019-05-30T01:01:40.359Z,89.47
2019-05-30T01:03:42.409Z,89.24
2019-05-30T01:05:44.430Z,89.13
2019-05-30T01:07:46.466Z,88.88
2019-05-30T01:09:48.541Z,89.76
2019-05-30T01:11:50.585Z,89.44
2019-05-30T01:13:52.856Z,89.66
2019-05-30T01:15:54.972Z,89.69
2019-05-30T01:17:57.021Z,89.54
2019-05-30T01:19:59.162Z,89.53
2019-05-30T01:22:01.329Z,89.82
2019-05-30T01:24:03.937Z,89.97
2019-05-30T01:26:05.950Z,89.85
2019-05-30T01:28:08.249Z,90.08
2019-05-30T01:30:10.690Z,90.01
2019-05-30T01:32:30.544Z,90.38
2019-05-30T01:34:32.682Z,89.96
2019-05-30T01:36:34.858Z,90.30
2019-05-30T01:38:37.052Z,90.27
2019-05-30T01:40:39.212Z,90.23
2019-05-30T01:42:41.377Z,90.08
2019-05-30T01:44:43.651Z,90.17
2019-05-30T01:46:45.694Z,90.24
2019-05-30T01:48:47.713Z,90.60
2019-05-30T01:50:50.353Z,91.13
2019-05-30T01:52:52.247Z,90.55
2019-05-30T01:54:54.333Z,90.56
2019-05-30T01:56:56.737Z,90.22
2019-05-30T01:58:58.686Z,89.90
2019-05-30T02:01:17.980Z,89.53
2019-05-30T02:03:05.485Z,89.98
2019-05-30T02:05:07.823Z,90.11
2019-05-30T02:07:10.718Z,90.17
2019-05-30T02:09:12.995Z,90.27
2019-05-30T02:11:15.001Z,89.87
2019-05-30T02:13:16.979Z,89.80
2019-05-30T02:15:19.286Z,90.06
2019-05-30T02:17:21.352Z,90.14
2019-05-30T02:19:23.370Z,90.12
2019-05-30T02:21:25.880Z,89.86
2019-05-30T02:23:27.596Z,89.74
2019-05-30T02:25:30.836Z,89.92
2019-05-30T02:27:33.108Z,90.16
2019-05-30T02:29:35.178Z,90.23
2019-05-30T02:31:39.419Z,90.43
2019-05-30T02:33:41.329Z,90.29
2019-05-30T02:35:43.362Z,90.14
2019-05-30T02:37:45.441Z,90.32
2019-05-30T02:39:47.915Z,90.36
2019-05-30T02:41:49.496Z,90.16
2019-05-30T02:43:51.437Z,90.20
2019-05-30T02:45:53.691Z,89.67
2019-05-30T02:47:55.947Z,89.50
2019-05-30T02:49:58.213Z,90.21
2019-05-30T02:52:02.497Z,90.18
2019-05-30T02:54:06.982Z,90.16
2019-05-30T02:56:10.301Z,90.61
2019-05-30T02:58:13.527Z,90.45
2019-05-30T03:00:20.514Z,90.43
2019-05-30T03:02:22.705Z,90.95
2019-05-30T03:04:24.957Z,90.86
2019-05-30T03:06:27.181Z,90.93
2019-05-30T03:08:29.670Z,91.14
2019-05-30T03:10:31.530Z,90.98
2019-05-30T03:12:33.911Z,91.20
2019-05-30T03:14:35.897Z,91.16
2019-05-30T03:16:38.365Z,91.44
2019-05-30T03:18:41.385Z,91.13
2019-05-30T03:20:43.559Z,91.33
2019-05-30T03:22:46.894Z,91.35
2019-05-30T03:24:49.095Z,91.37
2019-05-30T03:26:52.206Z,91.56
2019-05-30T03:28:54.513Z,91.35
2019-05-30T03:30:57.749Z,91.05
2019-05-30T03:33:07.807Z,91.54
2019-05-30T03:35:09.179Z,91.83
2019-05-30T03:37:16.673Z,91.83
2019-05-30T03:39:14.522Z,91.88
2019-05-30T03:41:17.026Z,92.07
2019-05-30T03:43:19.021Z,92.04
2019-05-30T03:45:23.166Z,91.87
2019-05-30T03:47:29.044Z,92.06
2019-05-30T03:49:34.973Z,92.12
2019-05-30T03:51:40.289Z,92.15
2019-05-30T03:53:43.169Z,92.22
2019-05-30T03:55:49.435Z,92.44
2019-05-30T03:57:59.140Z,92.36
2019-05-30T04:00:06.032Z,92.29
2019-05-30T04:02:55.097Z,92.64
2019-05-30T04:04:48.950Z,92.71
2019-05-30T04:06:56.713Z,92.88
2019-05-30T04:09:07.009Z,92.56
2019-05-30T04:11:14.770Z,92.71
2019-05-30T04:13:45.414Z,92.81
2019-05-30T04:15:47.444Z,92.89
2019-05-30T04:17:49.470Z,92.77
2019-05-30T04:19:51.529Z,92.87
2019-05-30T04:21:53.880Z,92.61
2019-05-30T04:23:55.931Z,92.67
2019-05-30T04:26:00.534Z,92.87
2019-05-30T04:28:01.894Z,92.89
2019-05-30T04:30:04.348Z,92.97
2019-05-30T04:32:08.285Z,93.01
2019-05-30T04:34:10.321Z,92.88
2019-05-30T04:36:12.568Z,93.16
2019-05-30T04:38:17.047Z,93.01
2019-05-30T04:40:19.688Z,93.01
2019-05-30T04:42:22.121Z,92.93
2019-05-30T04:44:24.294Z,93.09
2019-05-30T04:46:26.328Z,93.19
2019-05-30T04:48:28.330Z,93.16
2019-05-30T04:50:30.419Z,93.05
2019-05-30T04:52:32.421Z,93.04
2019-05-30T04:54:34.492Z,93.50
2019-05-30T04:56:36.700Z,93.52
2019-05-30T04:58:42.274Z,93.37
2019-05-30T05:00:42.661Z,93.28
2019-05-30T05:02:44.755Z,92.96
2019-05-30T05:04:46.847Z,93.18
2019-05-30T05:06:48.873Z,93.23
2019-05-30T05:08:51.374Z,93.25
2019-05-30T05:10:52.942Z,93.16
2019-05-30T05:12:55.000Z,93.39
2019-05-30T05:14:57.408Z,93.35
2019-05-30T05:16:59.438Z,93.21
2019-05-30T05:19:01.473Z,92.81
2019-05-30T05:21:03.595Z,92.79
2019-05-30T05:23:06.065Z,93.05
2019-05-30T05:25:08.540Z,93.13
2019-05-30T05:27:10.560Z,93.01
2019-05-30T05:29:13.955Z,92.80
2019-05-30T05:31:16.540Z,92.68
2019-05-30T05:33:18.943Z,92.49
2019-05-30T05:35:20.974Z,92.40
2019-05-30T05:37:23.368Z,92.46
2019-05-30T05:39:25.630Z,92.08
2019-05-30T05:41:28.590Z,92.23
2019-05-30T05:43:30.843Z,92.01
2019-05-30T05:45:33.158Z,91.71
2019-05-30T05:47:35.366Z,91.70
2019-05-30T05:49:37.396Z,92.08
2019-05-30T05:51:39.962Z,92.06
2019-05-30T05:53:41.594Z,91.62
2019-05-30T05:55:43.810Z,91.67
2019-05-30T05:57:45.852Z,91.39
2019-05-30T05:59:47.950Z,91.17
2019-05-30T06:01:50.142Z,90.72
2019-05-30T06:03:52.320Z,90.88
2019-05-30T06:05:54.372Z,90.63
2019-05-30T06:07:56.401Z,90.21
2019-05-30T06:09:58.817Z,90.31
2019-05-30T06:12:00.943Z,90.58
2019-05-30T06:14:04.180Z,90.38
2019-05-30T06:16:06.508Z,90.14
2019-05-30T06:18:08.736Z,89.67
2019-05-30T06:20:11.102Z,89.67
2019-05-30T06:22:13.332Z,89.60
2019-05-30T06:24:15.573Z,89.00
2019-05-30T06:26:17.902Z,89.28
2019-05-30T06:28:20.456Z,88.83
2019-05-30T06:30:22.756Z,89.19
2019-05-30T06:32:24.758Z,88.70
2019-05-30T06:34:38.137Z,88.45
2019-05-30T06:36:30.941Z,88.79
2019-05-30T06:38:33.381Z,89.16
2019-05-30T06:40:35.581Z,89.77
2019-05-30T06:42:38.047Z,89.20
2019-05-30T06:44:40.090Z,89.15
2019-05-30T06:46:42.321Z,88.21
2019-05-30T06:48:44.352Z,88.77
2019-05-30T06:50:46.571Z,89.00
2019-05-30T06:52:48.567Z,88.56
2019-05-30T06:54:50.577Z,88.61
2019-05-30T06:56:53.006Z,88.16
2019-05-30T06:58:54.829Z,88.41
2019-05-30T07:00:57.233Z,88.70
2019-05-30T07:02:59.352Z,88.50
2019-05-30T07:05:02.499Z,88.24
2019-05-30T07:07:06.134Z,87.86
2019-05-30T07:09:08.654Z,87.20
2019-05-30T07:11:10.684Z,87.36
2019-05-30T07:13:12.715Z,87.58
2019-05-30T07:15:14.970Z,86.88
2019-05-30T07:17:17.206Z,86.97
2019-05-30T07:19:19.260Z,87.42
2019-05-30T07:21:21.333Z,87.46
2019-05-30T07:23:24.106Z,87.18
2019-05-30T07:25:26.288Z,87.13
2019-05-30T07:27:28.318Z,87.18
2019-05-30T07:29:31.883Z,86.88
2019-05-30T07:31:34.520Z,86.29
2019-05-30T07:33:37.605Z,87.09
2019-05-30T07:35:40.060Z,86.86
2019-05-30T07:37:46.245Z,87.20
2019-05-30T07:39:46.289Z,86.80
2019-05-30T07:42:04.911Z,86.97
2019-05-30T07:43:52.702Z,86.64
2019-05-30T07:45:58.322Z,86.80
2019-05-30T07:47:58.884Z,86.14
2019-05-30T07:50:01.024Z,85.73
2019-05-30T07:52:03.151Z,86.26
2019-05-30T07:54:05.797Z,85.72
2019-05-30T07:56:08.230Z,85.24
2019-05-30T07:58:10.265Z,84.45
2019-05-30T08:00:14.351Z,84.85
2019-05-30T08:02:16.376Z,83.56
2019-05-30T08:04:18.431Z,83.85
2019-05-30T08:06:21.019Z,84.43
2019-05-30T08:08:23.182Z,83.76
2019-05-30T08:10:25.406Z,83.69
2019-05-30T08:12:28.006Z,83.58
2019-05-30T08:14:33.172Z,83.61
2019-05-30T08:16:35.606Z,83.83
2019-05-30T08:18:37.946Z,83.84
2019-05-30T08:20:41.471Z,84.35
2019-05-30T08:22:44.910Z,83.84
2019-05-30T08:24:46.971Z,84.11
2019-05-30T08:26:49.033Z,83.89
2019-05-30T08:28:52.347Z,83.26
2019-05-30T08:30:56.980Z,82.33
2019-05-30T08:32:59.660Z,82.04
2019-05-30T08:35:01.988Z,82.43
2019-05-30T08:37:04.457Z,81.27
2019-05-30T08:39:06.891Z,81.58
2019-05-30T08:41:09.189Z,81.81
2019-05-30T08:43:11.226Z,81.51
2019-05-30T08:45:15.340Z,81.58
2019-05-30T08:47:17.414Z,81.37
2019-05-30T08:49:20.379Z,81.02
2019-05-30T08:51:22.157Z,80.04
2019-05-30T08:53:24.528Z,79.09
2019-05-30T08:55:27.011Z,79.88
2019-05-30T08:57:28.735Z,80.99
2019-05-30T08:59:32.416Z,80.70
2019-05-30T09:01:35.745Z,81.02
2019-05-30T09:03:38.483Z,81.77
2019-05-30T09:05:57.256Z,81.13
2019-05-30T09:07:44.740Z,80.67
2019-05-30T09:09:46.736Z,79.97
2019-05-30T09:11:48.836Z,80.48
2019-05-30T09:13:51.506Z,80.17
2019-05-30T09:15:53.545Z,79.47
2019-05-30T09:17:55.554Z,78.22
2019-05-30T09:19:57.890Z,78.06
2019-05-30T09:21:59.951Z,78.42
2019-05-30T09:24:02.085Z,78.46
2019-05-30T09:26:04.481Z,77.79
2019-05-30T09:28:06.262Z,77.11
2019-05-30T09:30:09.049Z,77.79
2019-05-30T09:32:11.799Z,77.27
2019-05-30T09:34:14.155Z,75.54
2019-05-30T09:36:16.535Z,75.45
2019-05-30T09:38:18.915Z,75.80
2019-05-30T09:40:21.764Z,76.55
2019-05-30T09:42:24.011Z,77.45
2019-05-30T09:44:26.529Z,77.51
2019-05-30T09:46:28.381Z,78.01
2019-05-30T09:48:30.790Z,78.58
2019-05-30T09:50:33.429Z,78.89
2019-05-30T09:52:36.164Z,78.11
2019-05-30T09:54:37.929Z,78.33
2019-05-30T09:56:40.436Z,77.52
2019-05-30T09:58:43.838Z,76.62
2019-05-30T10:00:47.238Z,76.46
2019-05-30T10:02:50.652Z,75.86
2019-05-30T10:04:52.811Z,75.89
2019-05-30T10:06:55.075Z,76.54
2019-05-30T10:08:57.314Z,76.48
2019-05-30T10:10:59.564Z,76.66
2019-05-30T10:13:01.601Z,75.27
2019-05-30T10:15:05.051Z,76.27
2019-05-30T10:17:09.287Z,76.29
2019-05-30T10:19:11.419Z,76.10
2019-05-30T10:21:13.579Z,76.25
2019-05-30T10:23:15.889Z,76.25
2019-05-30T10:25:17.921Z,75.62
2019-05-30T10:27:20.085Z,75.98
2019-05-30T10:29:22.474Z,76.03
2019-05-30T10:31:24.506Z,75.82
2019-05-30T10:33:26.875Z,76.01
2019-05-30T10:35:29.967Z,76.77
2019-05-30T10:37:32.590Z,77.28
2019-05-30T10:39:34.855Z,78.30
2019-05-30T10:41:36.878Z,77.05
2019-05-30T10:43:38.912Z,75.95
2019-05-30T10:45:41.187Z,76.15
2019-05-30T10:47:43.207Z,75.68
2019-05-30T10:49:46.838Z,75.89
2019-05-30T10:51:51.505Z,74.98
2019-05-30T10:53:54.111Z,74.76
2019-05-30T10:55:57.318Z,74.57
2019-05-30T10:57:59.867Z,72.70
2019-05-30T11:00:04.805Z,72.50
2019-05-30T11:02:07.079Z,71.80
2019-05-30T11:04:09.264Z,72.22
2019-05-30T11:07:01.255Z,72.25
2019-05-30T11:08:52.832Z,70.56
2019-05-30T11:10:55.119Z,69.56
2019-05-30T11:13:05.282Z,69.15
2019-05-30T11:15:01.590Z,67.84
2019-05-30T11:17:03.677Z,67.80
2019-05-30T11:19:07.736Z,69.10
2019-05-30T11:21:10.187Z,68.53
2019-05-30T11:23:11.827Z,69.25
2019-05-30T11:25:13.862Z,67.70
2019-05-30T11:27:16.327Z,67.36
2019-05-30T11:29:18.444Z,68.02
2019-05-30T11:31:21.425Z,68.20
2019-05-30T11:33:23.501Z,70.42
2019-05-30T11:35:26.310Z,68.08
2019-05-30T11:37:28.325Z,67.45
2019-05-30T11:39:30.639Z,67.54
2019-05-30T11:41:32.871Z,69.03
2019-05-30T11:43:34.946Z,68.50
2019-05-30T11:45:37.028Z,67.30
2019-05-30T11:47:39.275Z,68.21
2019-05-30T11:49:41.346Z,68.92
2019-05-30T11:51:43.402Z,69.48
2019-05-30T11:53:45.854Z,69.94
2019-05-30T11:55:48.072Z,70.37
2019-05-30T11:57:50.281Z,70.56
2019-05-30T11:59:52.561Z,70.79
2019-05-30T12:01:54.629Z,70.16
2019-05-30T12:03:56.986Z,70.76
2019-05-30T12:06:04.178Z,68.79
2019-05-30T12:08:06.179Z,69.11
2019-05-30T12:10:09.539Z,67.80
2019-05-30T12:12:11.786Z,66.79
2019-05-30T12:14:13.688Z,66.80
2019-05-30T12:16:16.213Z,66.68
2019-05-30T12:18:18.389Z,66.53
2019-05-30T12:20:20.504Z,67.10
2019-05-30T12:22:22.577Z,66.76
2019-05-30T12:24:24.649Z,66.70
2019-05-30T12:26:26.800Z,66.50
2019-05-30T12:28:28.912Z,65.69
2019-05-30T12:30:31.278Z,65.15
2019-05-30T12:32:33.446Z,64.96
2019-05-30T12:34:35.484Z,66.63
2019-05-30T12:36:37.807Z,66.66
2019-05-30T12:38:39.829Z,67.35
2019-05-30T12:40:43.094Z,67.39
2019-05-30T12:42:45.177Z,67.86
2019-05-30T12:44:47.277Z,67.98
2019-05-30T12:46:49.302Z,67.95
2019-05-30T12:48:51.859Z,68.34
2019-05-30T12:50:57.124Z,67.49
2019-05-30T12:53:00.461Z,66.98
2019-05-30T12:55:04.508Z,66.55
2019-05-30T12:57:07.014Z,64.92
2019-05-30T12:59:09.465Z,65.16
2019-05-30T13:01:12.049Z,64.32
2019-05-30T13:03:14.178Z,63.85
2019-05-30T13:05:16.249Z,63.18
2019-05-30T13:07:18.731Z,62.44
2019-05-30T13:09:21.822Z,62.69
2019-05-30T13:11:23.864Z,62.92
2019-05-30T13:13:26.475Z,61.45
2019-05-30T13:15:28.245Z,61.29
2019-05-30T13:17:30.521Z,62.09
2019-05-30T13:19:32.657Z,63.50
2019-05-30T13:21:34.955Z,63.38
2019-05-30T13:23:37.399Z,62.99
2019-05-30T13:25:39.381Z,63.84
2019-05-30T13:27:41.468Z,65.05
2019-05-30T13:29:43.550Z,65.14
2019-05-30T13:31:46.286Z,64.04
2019-05-30T13:33:48.361Z,63.07
2019-05-30T13:35:50.621Z,63.61
2019-05-30T13:37:53.348Z,62.96
2019-05-30T13:39:55.513Z,64.16
2019-05-30T13:41:57.713Z,64.13
2019-05-30T13:44:03.254Z,64.09
2019-05-30T13:46:04.657Z,64.32
2019-05-30T13:48:08.640Z,63.85
2019-05-30T13:50:14.193Z,63.00
2019-05-30T13:52:15.900Z,63.32
2019-05-30T13:54:18.063Z,63.75
2019-05-30T13:56:20.294Z,64.00
2019-05-30T13:58:22.425Z,63.70
2019-05-30T14:00:24.705Z,63.98
2019-05-30T14:02:27.204Z,64.20
2019-05-30T14:04:29.037Z,65.19
2019-05-30T14:06:31.634Z,65.04
2019-05-30T14:08:41.599Z,64.32
2019-05-30T14:10:37.813Z,64.41
2019-05-30T14:12:40.070Z,63.92
2019-05-30T14:14:42.341Z,64.26
2019-05-30T14:16:44.380Z,64.49
2019-05-30T14:18:46.443Z,64.99
2019-05-30T14:20:48.630Z,64.52
2019-05-30T14:22:50.711Z,63.23
2019-05-30T14:24:52.950Z,62.95
2019-05-30T14:26:54.952Z,62.08
2019-05-30T14:28:57.201Z,61.38
2019-05-30T14:30:59.383Z,60.81
2019-05-30T14:33:02.095Z,59.73
2019-05-30T14:35:06.404Z,59.22
2019-05-30T14:37:08.743Z,59.27
2019-05-30T14:39:11.277Z,58.75
2019-05-30T14:41:13.570Z,58.64
2019-05-30T14:43:15.587Z,58.01
2019-05-30T14:45:20.432Z,57.81
2019-05-30T14:47:22.697Z,57.36
2019-05-30T14:49:24.728Z,57.57
2019-05-30T14:51:28.174Z,57.02
2019-05-30T14:53:30.729Z,57.11
2019-05-30T14:55:32.804Z,57.45
2019-05-30T14:57:35.160Z,58.14
2019-05-30T14:59:37.296Z,58.13
2019-05-30T15:01:39.410Z,58.35
2019-05-30T15:03:41.666Z,58.93
2019-05-30T15:05:43.783Z,57.94
2019-05-30T15:07:45.881Z,57.96
2019-05-30T15:09:49.188Z,57.94
2019-05-30T15:11:51.297Z,58.20
2019-05-30T15:13:54.438Z,57.68
2019-05-30T15:15:57.317Z,57.05
2019-05-30T15:17:59.469Z,57.15
2019-05-30T15:20:01.630Z,57.27
2019-05-30T15:22:05.534Z,57.07
2019-05-30T15:24:07.827Z,57.16
2019-05-30T15:26:09.999Z,56.66
2019-05-30T15:28:14.145Z,56.73
2019-05-30T15:30:17.027Z,58.19
2019-05-30T15:32:19.392Z,58.70
2019-05-30T15:34:21.909Z,59.21
2019-05-30T15:36:23.631Z,59.52
2019-05-30T15:38:25.839Z,59.51
2019-05-30T15:40:27.991Z,59.68
2019-05-30T15:42:30.395Z,59.93
2019-05-30T15:44:32.772Z,60.24
2019-05-30T15:46:34.551Z,58.95
2019-05-30T15:48:36.626Z,57.99
2019-05-30T15:50:38.787Z,57.19
2019-05-30T15:52:41.117Z,56.84
2019-05-30T15:54:43.199Z,56.33
2019-05-30T15:56:46.817Z,56.21
2019-05-30T15:58:49.078Z,56.73
2019-05-30T16:00:51.358Z,57.04
2019-05-30T16:02:53.373Z,57.14
2019-05-30T16:04:55.579Z,57.16
2019-05-30T16:06:57.680Z,57.01
2019-05-30T16:08:59.745Z,57.38
2019-05-30T16:11:01.984Z,57.57
2019-05-30T16:13:05.264Z,57.45
2019-05-30T16:15:07.530Z,58.25
2019-05-30T16:17:11.757Z,58.46
2019-05-30T16:19:20.156Z,59.23
2019-05-30T16:21:18.666Z,60.52
2019-05-30T16:23:22.456Z,59.98
2019-05-30T16:25:25.809Z,59.37
2019-05-30T16:27:31.055Z,59.66
2019-05-30T16:29:32.234Z,60.37
2019-05-30T16:31:34.329Z,60.83
2019-05-30T16:33:36.597Z,60.49
2019-05-30T16:35:39.131Z,60.64
2019-05-30T16:37:41.209Z,60.55
2019-05-30T16:39:43.231Z,61.53
2019-05-30T16:41:45.509Z,60.73
2019-05-30T16:43:48.109Z,61.19
2019-05-30T16:45:50.312Z,61.24
2019-05-30T16:47:52.430Z,62.71
2019-05-30T16:49:54.594Z,63.64
2019-05-30T16:51:56.689Z,63.54
2019-05-30T16:53:58.754Z,63.47
2019-05-30T16:56:00.828Z,63.23
2019-05-30T16:58:03.012Z,62.74
2019-05-30T17:00:05.825Z,62.39
2019-05-30T17:02:08.048Z,62.94
2019-05-30T17:04:10.048Z,62.77
2019-05-30T17:06:12.411Z,63.01
2019-05-30T17:08:14.466Z,63.07
2019-05-30T17:10:23.379Z,64.66
2019-05-30T17:12:21.736Z,63.58
2019-05-30T17:14:24.043Z,63.74
2019-05-30T17:16:27.367Z,62.76
2019-05-30T17:18:29.800Z,62.73
2019-05-30T17:20:31.440Z,63.41
2019-05-30T17:22:33.401Z,63.82
2019-05-30T17:24:36.265Z,63.54
2019-05-30T17:26:38.325Z,63.19
2019-05-30T17:28:40.548Z,63.05
2019-05-30T17:30:42.785Z,63.40
2019-05-30T17:32:44.993Z,63.58
2019-05-30T17:34:47.046Z,63.59
2019-05-30T17:36:49.591Z,63.08
2019-05-30T17:38:51.284Z,63.58
2019-05-30T17:40:53.276Z,63.77
2019-05-30T17:42:55.374Z,63.43
2019-05-30T17:44:57.719Z,63.34
2019-05-30T17:46:59.858Z,63.87
2019-05-30T17:49:02.272Z,64.07
2019-05-30T17:51:04.053Z,64.07
2019-05-30T17:53:06.279Z,63.94
2019-05-30T17:55:08.962Z,63.98
2019-05-30T17:57:12.333Z,64.16
2019-05-30T17:59:16.209Z,64.50
2019-05-30T18:01:18.422Z,64.71
2019-05-30T18:03:20.909Z,64.83
2019-05-30T18:05:22.571Z,64.72
2019-05-30T18:07:24.943Z,64.77
2019-05-30T18:09:27.197Z,64.81
2019-05-30T18:11:29.467Z,64.86
2019-05-30T18:13:31.764Z,65.50
2019-05-30T18:15:33.909Z,64.45
2019-05-30T18:17:36.017Z,64.18
2019-05-30T18:19:38.212Z,64.69
2019-05-30T18:21:41.086Z,64.69
2019-05-30T18:23:44.847Z,64.71
2019-05-30T18:25:47.076Z,64.53
2019-05-30T18:27:49.130Z,64.87
2019-05-30T18:29:51.154Z,64.55
2019-05-30T18:31:53.982Z,64.96
2019-05-30T18:33:56.339Z,65.20
2019-05-30T18:35:58.403Z,64.91
2019-05-30T18:38:01.968Z,65.39
2019-05-30T18:40:05.145Z,65.26
2019-05-30T18:42:07.411Z,64.64
2019-05-30T18:44:10.028Z,65.11
2019-05-30T18:46:12.075Z,65.44
2019-05-30T18:48:14.239Z,65.50
2019-05-30T18:50:16.736Z,65.79
2019-05-30T18:52:18.889Z,65.71
2019-05-30T18:54:20.928Z,66.13
2019-05-30T18:56:23.119Z,66.46
2019-05-30T18:58:25.258Z,66.46
2019-05-30T19:00:27.413Z,66.77
2019-05-30T19:02:31.276Z,67.01
2019-05-30T19:04:33.712Z,66.71
2019-05-30T19:06:36.246Z,66.55
2019-05-30T19:08:38.779Z,67.02
2019-05-30T19:10:40.874Z,67.57
2019-05-30T19:12:44.323Z,67.73
2019-05-30T19:14:46.494Z,67.63
2019-05-30T19:16:48.575Z,67.73
2019-05-30T19:18:50.901Z,67.90
2019-05-30T19:20:53.202Z,67.91
2019-05-30T19:22:55.250Z,67.92
2019-05-30T19:24:58.553Z,68.12
2019-05-30T19:27:00.762Z,68.22
2019-05-30T19:29:02.903Z,67.92
2019-05-30T19:31:05.104Z,67.97
2019-05-30T19:33:07.406Z,67.69
2019-05-30T19:35:10.223Z,67.99
2019-05-30T19:37:12.497Z,68.33
2019-05-30T19:39:14.930Z,68.34
2019-05-30T19:41:17.025Z,68.10
2019-05-30T19:43:19.074Z,68.32
2019-05-30T19:45:21.646Z,67.96
2019-05-30T19:47:23.722Z,68.12
2019-05-30T19:49:26.057Z,68.41
2019-05-30T19:51:28.724Z,68.64
2019-05-30T19:53:31.001Z,68.70
2019-05-30T19:55:33.321Z,68.67
2019-05-30T19:57:35.744Z,68.85
2019-05-30T19:59:37.923Z,68.94
2019-05-30T20:01:40.448Z,68.96
2019-05-30T20:03:46.763Z,68.79
2019-05-30T20:05:46.386Z,69.02
2019-05-30T20:07:48.467Z,69.37
2019-05-30T20:10:00.885Z,69.50
2019-05-30T20:12:03.185Z,69.71
2019-05-30T20:14:00.391Z,69.67
2019-05-30T20:16:02.448Z,69.31
2019-05-30T20:18:04.610Z,68.99
2019-05-30T20:20:07.299Z,69.71
2019-05-30T20:22:09.892Z,69.85
2019-05-30T20:24:12.281Z,70.21
2019-05-30T20:26:14.582Z,70.25
2019-05-30T20:28:17.019Z,70.11
2019-05-30T20:30:19.076Z,70.01
2019-05-30T20:32:21.836Z,70.24
2019-05-30T20:34:24.330Z,70.27
2019-05-30T20:36:26.449Z,70.30
2019-05-30T20:38:28.847Z,70.19
2019-05-30T20:40:32.468Z,69.90
2019-05-30T20:42:34.743Z,69.90
2019-05-30T20:44:36.957Z,69.70
2019-05-30T20:46:39.255Z,69.69
2019-05-30T20:48:43.634Z,70.01
2019-05-30T20:50:45.320Z,70.19
2019-05-30T20:52:47.724Z,70.06
2019-05-30T20:54:49.459Z,70.17
2019-05-30T20:56:52.031Z,70.44
2019-05-30T20:58:54.899Z,70.16
2019-05-30T21:00:57.091Z,70.28
2019-05-30T21:02:59.232Z,70.22
2019-05-30T21:05:01.602Z,70.13
2019-05-30T21:07:03.391Z,70.44
2019-05-30T21:09:06.229Z,70.39
2019-05-30T21:11:09.818Z,70.33
2019-05-30T21:13:12.070Z,70.61
2019-05-30T21:15:14.306Z,70.57
2019-05-30T21:17:18.802Z,70.76
2019-05-30T21:19:20.943Z,70.53
2019-05-30T21:21:22.990Z,70.90
2019-05-30T21:23:25.057Z,70.84
2019-05-30T21:25:27.528Z,70.50
2019-05-30T21:27:29.233Z,70.67
2019-05-30T21:29:31.455Z,70.26
2019-05-30T21:31:33.944Z,70.03
2019-05-30T21:33:35.576Z,70.52
2019-05-30T21:35:37.952Z,70.67
2019-05-30T21:37:39.973Z,70.76
2019-05-30T21:39:42.114Z,70.78
2019-05-30T21:41:44.624Z,70.75
2019-05-30T21:43:46.925Z,71.38
2019-05-30T21:45:49.091Z,70.73
2019-05-30T21:47:51.254Z,71.63
2019-05-30T21:51:09.682Z,72.22
2019-05-30T21:53:11.759Z,72.34
2019-05-30T21:55:15.547Z,72.38
2019-05-30T21:57:17.642Z,71.84
2019-05-30T21:59:20.019Z,72.24
2019-05-30T22:01:31.669Z,72.31
2019-05-30T22:03:33.852Z,72.21
2019-05-30T22:05:36.165Z,72.22
2019-05-30T22:07:38.254Z,72.20
2019-05-30T22:09:41.201Z,72.67
2019-05-30T22:11:43.711Z,72.44
2019-05-30T22:13:45.739Z,72.48
2019-05-30T22:15:48.249Z,72.51
2019-05-30T22:17:50.189Z,72.99
2019-05-30T22:19:52.473Z,73.19
2019-05-30T22:21:54.909Z,73.33
2019-05-30T22:23:56.938Z,73.47
2019-05-30T22:25:59.327Z,73.48
2019-05-30T22:28:01.330Z,73.85
2019-05-30T22:30:04.130Z,74.54
2019-05-30T22:32:07.398Z,74.21
2019-05-30T22:34:09.472Z,74.43
2019-05-30T22:36:11.535Z,74.44
2019-05-30T22:38:13.527Z,74.87
2019-05-30T22:40:15.561Z,75.26
2019-05-30T22:42:17.850Z,75.35
2019-05-30T22:44:20.047Z,75.45
2019-05-30T22:46:22.091Z,75.90
2019-05-30T22:48:24.336Z,75.79
2019-05-30T22:50:26.371Z,75.93
2019-05-30T22:52:28.367Z,76.12
2019-05-30T22:54:30.564Z,75.89
2019-05-30T22:56:32.895Z,76.24
2019-05-30T22:58:35.072Z,76.38
2019-05-30T23:00:37.113Z,76.33
2019-05-30T23:02:39.304Z,75.84
2019-05-30T23:04:41.360Z,76.14
2019-05-30T23:06:43.550Z,75.88
2019-05-30T23:08:46.382Z,76.34
2019-05-30T23:10:49.641Z,76.32
2019-05-30T23:12:52.062Z,76.82
2019-05-30T23:14:54.347Z,76.51
2019-05-30T23:16:56.705Z,76.80
2019-05-30T23:18:58.755Z,76.77
2019-05-30T23:21:00.903Z,76.78
2019-05-30T23:23:02.983Z,77.07
2019-05-30T23:25:05.237Z,77.45
2019-05-30T23:27:08.358Z,77.14
2019-05-30T23:29:10.749Z,77.22
2019-05-30T23:31:13.058Z,77.43
2019-05-30T23:33:15.209Z,77.74
2019-05-30T23:35:17.285Z,77.64
2019-05-30T23:37:19.488Z,77.72
2019-05-30T23:39:21.579Z,77.73
2019-05-30T23:41:23.724Z,77.70
2019-05-30T23:43:26.554Z,77.35
2019-05-30T23:45:28.618Z,77.42
2019-05-30T23:47:30.773Z,77.24
2019-05-30T23:49:33.470Z,77.64
2019-05-30T23:51:35.867Z,78.14
2019-05-30T23:53:38.111Z,78.21
2019-05-30T23:55:40.502Z,78.08
2019-05-30T23:57:42.633Z,77.54
2019-05-30T23:59:44.900Z,77.51
